Time;durP1;ratioP1;P1;durP2;ratioP2;P2;SDS_P1;SDS_P2;PMS_P1;PMS_P2;Temp;Humidity;BMP_temperature;BMP_pressure;BME280_temperature;BME280_humidity;BME280_pressure;Samples;Min_cycle;Max_cycle;Signal;HPM_P1;HPM_P2
2023/05/20 00:00:33;;;;;;;4.22;2.65;;;;;;;18.37;42.90;102295.09;5017484;27;97032;-74
2023/05/20 00:02:59;;;;;;;5.18;2.58;;;;;;;18.15;43.43;102295.13;5014921;27;97601;-73
2023/05/20 00:05:26;;;;;;;10.77;2.53;;;;;;;18.29;43.08;102290.94;5023316;27;101452;-73
2023/05/20 00:07:52;;;;;;;6.50;2.80;;;;;;;18.31;43.21;102289.03;5019064;27;96711;-73
2023/05/20 00:10:20;;;;;;;3.97;2.35;;;;;;;18.17;43.55;102287.91;5023421;27;97292;-73
2023/05/20 00:12:46;;;;;;;4.95;2.72;;;;;;;18.13;43.75;102286.28;5020558;27;101322;-74
2023/05/20 00:15:13;;;;;;;4.47;2.50;;;;;;;18.12;43.85;102289.91;5023638;27;99166;-73
2023/05/20 00:17:39;;;;;;;3.30;2.63;;;;;;;18.11;43.80;102291.72;5025466;27;97216;-72
2023/05/20 00:20:07;;;;;;;7.10;3.40;;;;;;;18.11;43.89;102285.50;5027010;27;96967;-73
2023/05/20 00:22:33;;;;;;;8.18;2.88;;;;;;;18.03;44.23;102290.31;5013902;27;98897;-74
2023/05/20 00:24:59;;;;;;;6.57;2.65;;;;;;;17.94;44.42;102280.84;5023619;27;101444;-74
2023/05/20 00:27:27;;;;;;;5.88;2.88;;;;;;;18.01;44.36;102284.16;5016970;27;96841;-73
2023/05/20 00:29:54;;;;;;;4.07;2.55;;;;;;;17.92;44.78;102283.59;5018519;27;96876;-73
2023/05/20 00:32:20;;;;;;;5.35;2.35;;;;;;;17.91;44.77;102281.00;5023850;27;99115;-73
2023/05/20 00:34:56;;;;;;;5.82;2.20;;;;;;;17.76;45.45;102279.81;5024945;27;98956;-74
2023/05/20 00:37:22;;;;;;;6.28;2.38;;;;;;;17.79;45.38;102281.47;5016987;27;97520;-73
2023/05/20 00:39:48;;;;;;;4.60;2.70;;;;;;;17.75;45.63;102283.44;5016924;27;97241;-73
2023/05/20 00:42:19;;;;;;;5.60;2.58;;;;;;;17.77;45.89;102288.72;5016419;27;98918;-73
2023/05/20 00:44:47;;;;;;;3.53;2.50;;;;;;;17.72;46.00;102288.03;5013797;27;98810;-74
2023/05/20 00:47:15;;;;;;;8.68;2.33;;;;;;;17.82;45.75;102290.28;5015427;27;98906;-74
2023/05/20 00:49:41;;;;;;;5.38;2.88;;;;;;;17.70;46.18;102292.56;5022169;27;97183;-74
2023/05/20 00:52:08;;;;;;;6.40;2.80;;;;;;;17.73;46.18;102293.31;5021285;27;102453;-74
2023/05/20 00:54:35;;;;;;;6.22;2.65;;;;;;;17.66;46.40;102291.81;5010579;27;98885;-73
2023/05/20 00:57:03;;;;;;;7.22;2.60;;;;;;;17.66;46.59;102286.47;5027783;27;97173;-74
2023/05/20 00:59:29;;;;;;;8.10;3.10;;;;;;;17.53;46.94;102287.84;5018096;27;99226;-73
2023/05/20 01:01:57;;;;;;;7.97;3.25;;;;;;;17.56;47.06;102289.56;5017477;27;99677;-74
2023/05/20 01:04:24;;;;;;;5.90;3.05;;;;;;;17.56;47.18;102290.44;5016273;27;99518;-73
2023/05/20 01:06:51;;;;;;;7.22;2.90;;;;;;;17.43;47.52;102283.81;5020706;27;96883;-74
2023/05/20 01:09:17;;;;;;;7.65;3.13;;;;;;;17.46;47.79;102281.00;5025604;27;97400;-74
2023/05/20 01:11:51;;;;;;;5.90;2.95;;;;;;;17.51;47.58;102271.03;5020412;27;99269;-74
2023/05/20 01:14:24;;;;;;;5.07;3.15;;;;;;;17.47;47.57;102274.75;5024180;27;100497;-74
2023/05/20 01:16:52;;;;;;;5.15;2.85;;;;;;;17.41;47.89;102265.19;5018886;27;96690;-73
2023/05/20 01:19:28;;;;;;;8.70;3.17;;;;;;;17.41;48.08;102275.00;5018488;27;96901;-74
2023/05/20 01:21:56;;;;;;;6.60;2.88;;;;;;;17.54;47.65;102270.91;5022035;27;98892;-74
2023/05/20 01:24:23;;;;;;;6.10;2.53;;;;;;;17.48;47.95;102272.00;5022876;27;98842;-74
2023/05/20 01:26:50;;;;;;;4.18;2.75;;;;;;;17.47;48.10;102269.41;5021867;27;96843;-74
2023/05/20 01:29:17;;;;;;;6.55;3.30;;;;;;;17.41;48.10;102270.53;5016163;27;98484;-74
2023/05/20 01:31:46;;;;;;;9.32;2.90;;;;;;;17.47;48.02;102269.41;5027912;27;101671;-75
2023/05/20 01:34:13;;;;;;;7.53;3.92;;;;;;;17.38;48.18;102268.00;5016139;27;98986;-74
2023/05/20 01:36:40;;;;;;;4.93;2.70;;;;;;;17.35;48.33;102270.75;5023191;27;96796;-73
2023/05/20 01:39:07;;;;;;;5.97;2.78;;;;;;;17.50;48.08;102263.94;5026537;27;97249;-74
2023/05/20 01:41:36;;;;;;;7.85;3.22;;;;;;;17.36;48.55;102258.28;5025091;27;101838;-72
2023/05/20 01:44:02;;;;;;;4.57;2.80;;;;;;;17.47;48.25;102258.72;5016144;27;98790;-73
2023/05/20 01:46:32;;;;;;;8.88;2.67;;;;;;;17.40;48.54;102262.56;5022738;27;96882;-73
2023/05/20 01:48:59;;;;;;;9.20;3.30;;;;;;;17.28;48.99;102257.72;5017269;27;99824;-73
2023/05/20 01:51:26;;;;;;;6.70;3.15;;;;;;;17.33;48.57;102264.59;5020495;27;97906;-74
2023/05/20 01:53:53;;;;;;;7.85;2.92;;;;;;;17.29;48.84;102257.66;5019687;27;98653;-74
2023/05/20 01:56:20;;;;;;;10.02;3.20;;;;;;;17.46;48.42;102252.50;5034089;27;97232;-74
2023/05/20 01:58:48;;;;;;;7.63;3.00;;;;;;;17.48;48.37;102252.44;5027306;27;96838;-72
2023/05/20 02:01:14;;;;;;;5.65;3.00;;;;;;;17.37;48.81;102247.53;5020149;27;100017;-73
2023/05/20 02:03:41;;;;;;;7.63;3.08;;;;;;;17.11;49.71;102251.25;5024800;27;98948;-72
2023/05/20 02:06:07;;;;;;;6.97;3.20;;;;;;;17.15;49.32;102243.97;5024841;27;97062;-73
2023/05/20 02:08:33;;;;;;;11.52;3.20;;;;;;;17.13;49.54;102246.69;5025826;27;99094;-72
2023/05/20 02:11:00;;;;;;;8.95;3.00;;;;;;;17.28;49.13;102241.69;5023229;27;99551;-73
2023/05/20 02:13:26;;;;;;;7.80;3.38;;;;;;;17.26;49.22;102247.09;5021175;27;99393;-73
2023/05/20 02:15:54;;;;;;;13.18;3.78;;;;;;;17.32;49.01;102243.31;5027032;27;96700;-73
2023/05/20 02:18:21;;;;;;;5.47;2.97;;;;;;;17.30;49.06;102247.84;5032355;27;96811;-74
2023/05/20 02:20:47;;;;;;;5.88;3.03;;;;;;;17.10;49.61;102248.63;5029980;27;98404;-73
2023/05/20 02:23:13;;;;;;;6.75;2.55;;;;;;;17.14;49.60;102251.09;5031508;27;97688;-73
2023/05/20 02:25:40;;;;;;;7.45;3.30;;;;;;;17.24;49.38;102253.44;5017907;27;96848;-73
2023/05/20 02:28:09;;;;;;;8.20;3.97;;;;;;;17.24;49.38;102256.97;5024837;27;96853;-73
2023/05/20 02:30:36;;;;;;;5.43;3.08;;;;;;;17.35;49.10;102249.38;5023021;27;97805;-74
2023/05/20 02:33:04;;;;;;;8.00;3.30;;;;;;;17.21;49.43;102245.53;5018529;27;100699;-74
2023/05/20 02:35:30;;;;;;;7.43;3.15;;;;;;;17.13;49.64;102244.03;5018835;27;96800;-73
2023/05/20 02:37:56;;;;;;;7.57;2.70;;;;;;;16.96;50.02;102243.81;5021373;27;97701;-73
2023/05/20 02:40:23;;;;;;;6.53;3.13;;;;;;;16.89;50.56;102241.44;5022062;27;99315;-74
2023/05/20 02:42:49;;;;;;;8.32;3.58;;;;;;;17.01;50.17;102243.63;5029831;27;99047;-73
2023/05/20 02:45:15;;;;;;;5.85;3.20;;;;;;;17.08;49.94;102250.47;5017547;27;98993;-75
2023/05/20 02:47:42;;;;;;;6.88;2.92;;;;;;;17.16;49.79;102252.84;5027815;27;96800;-73
2023/05/20 02:50:10;;;;;;;10.27;3.70;;;;;;;16.96;50.31;102254.50;5018975;27;98880;-74
2023/05/20 02:52:38;;;;;;;6.05;3.25;;;;;;;17.01;50.23;102257.84;5019520;27;98781;-74
2023/05/20 02:55:06;;;;;;;6.85;2.88;;;;;;;17.03;50.22;102258.66;5024753;27;98547;-74
2023/05/20 02:57:35;;;;;;;6.95;3.13;;;;;;;17.12;49.80;102250.31;5024879;27;97062;-74
2023/05/20 03:00:03;;;;;;;5.55;3.13;;;;;;;17.13;49.86;102252.03;5008441;27;97813;-73
2023/05/20 03:02:29;;;;;;;5.78;2.88;;;;;;;17.17;49.81;102259.94;5023606;27;98792;-75
2023/05/20 03:04:56;;;;;;;7.70;3.35;;;;;;;17.13;49.82;102254.69;5022189;27;96772;-73
2023/05/20 03:07:24;;;;;;;6.22;3.20;;;;;;;16.96;50.31;102251.81;5021359;27;98996;-74
2023/05/20 03:09:50;;;;;;;11.25;3.67;;;;;;;17.00;50.26;102255.25;5029562;27;98945;-73
2023/05/20 03:12:16;;;;;;;7.03;3.35;;;;;;;17.07;50.08;102272.75;5016038;27;101308;-75
2023/05/20 03:14:43;;;;;;;9.15;3.15;;;;;;;16.96;50.45;102262.50;5031459;27;96846;-73
2023/05/20 03:17:10;;;;;;;7.78;3.35;;;;;;;16.96;50.30;102266.97;5023689;27;96828;-74
2023/05/20 03:19:37;;;;;;;7.38;3.50;;;;;;;17.18;49.81;102272.38;5026384;27;98877;-72
2023/05/20 03:22:03;;;;;;;6.20;3.25;;;;;;;17.13;49.97;102272.56;5019883;27;98861;-72
2023/05/20 03:24:31;;;;;;;7.40;3.45;;;;;;;17.27;49.43;102270.19;5030425;27;96839;-72
2023/05/20 03:26:58;;;;;;;5.32;3.08;;;;;;;17.09;49.99;102269.13;5022035;27;97270;-72
2023/05/20 03:29:24;;;;;;;8.38;3.55;;;;;;;17.11;49.83;102267.28;5024565;27;98916;-72
2023/05/20 03:31:50;;;;;;;5.93;2.72;;;;;;;17.14;49.55;102264.47;5025154;27;99061;-72
2023/05/20 03:34:17;;;;;;;8.23;3.03;;;;;;;17.19;49.84;102266.97;5020593;27;97605;-72
2023/05/20 03:36:43;;;;;;;3.88;2.92;;;;;;;17.23;49.54;102275.72;5019524;27;99021;-72
2023/05/20 03:39:09;;;;;;;8.50;3.40;;;;;;;17.29;49.48;102271.00;5026652;27;98855;-72
2023/05/20 03:41:37;;;;;;;8.85;3.30;;;;;;;17.36;49.18;102277.84;5023776;27;99352;-72
2023/05/20 03:44:04;;;;;;;6.30;3.60;;;;;;;17.14;49.64;102275.13;5022420;27;98580;-72
2023/05/20 03:46:32;;;;;;;5.10;3.30;;;;;;;17.33;49.33;102277.09;5024254;27;97648;-73
2023/05/20 03:49:00;;;;;;;6.88;3.17;;;;;;;17.49;48.76;102283.56;5025866;27;99290;-74
2023/05/20 03:51:27;;;;;;;8.68;3.20;;;;;;;17.39;48.99;102277.72;5021662;27;101271;-73
2023/05/20 03:53:53;;;;;;;8.75;3.72;;;;;;;17.51;48.71;102276.38;5022199;27;97722;-73
2023/05/20 03:56:20;;;;;;;4.57;3.28;;;;;;;17.33;49.01;102279.75;5026486;27;96829;-73
2023/05/20 03:58:47;;;;;;;10.20;3.40;;;;;;;17.41;48.91;102283.00;5022145;27;99154;-72
2023/05/20 04:01:14;;;;;;;6.85;3.58;;;;;;;17.52;48.48;102284.31;5020809;27;98823;-72
2023/05/20 04:03:41;;;;;;;7.55;3.17;;;;;;;17.30;48.92;102285.25;5018887;27;96787;-72
2023/05/20 04:06:07;;;;;;;7.43;3.30;;;;;;;17.41;48.77;102277.66;5020288;27;99073;-73
2023/05/20 04:08:35;;;;;;;6.22;3.38;;;;;;;17.41;48.66;102285.69;5021849;27;99222;-73
2023/05/20 04:11:02;;;;;;;7.75;3.30;;;;;;;17.37;48.88;102282.28;5024930;27;101396;-73
2023/05/20 04:13:28;;;;;;;9.55;4.25;;;;;;;17.31;48.94;102279.84;5015669;27;96941;-73
2023/05/20 04:15:56;;;;;;;8.07;3.35;;;;;;;17.46;48.86;102273.00;5026215;27;96808;-73
2023/05/20 04:18:22;;;;;;;9.82;3.58;;;;;;;17.31;49.04;102274.50;5017971;27;99090;-71
2023/05/20 04:20:49;;;;;;;5.95;3.60;;;;;;;17.37;49.15;102274.25;5016846;27;101786;-73
2023/05/20 04:23:16;;;;;;;7.57;3.60;;;;;;;17.46;48.96;102270.31;5022317;27;96808;-73
2023/05/20 04:25:43;;;;;;;12.90;3.75;;;;;;;17.46;49.11;102278.34;5018410;27;96977;-72
2023/05/20 04:28:12;;;;;;;6.88;3.10;;;;;;;17.56;48.82;102271.72;5016941;27;99404;-72
2023/05/20 04:30:39;;;;;;;8.32;3.13;;;;;;;17.37;49.28;102268.91;5018763;27;99206;-72
2023/05/20 04:33:07;;;;;;;6.32;3.67;;;;;;;17.59;48.65;102274.25;5026871;27;99005;-73
2023/05/20 04:35:36;;;;;;;8.98;3.78;;;;;;;17.34;49.52;102274.38;5022091;27;97063;-73
2023/05/20 04:38:02;;;;;;;7.35;3.53;;;;;;;17.55;48.88;102267.28;5015428;27;99421;-73
2023/05/20 04:40:29;;;;;;;6.85;3.90;;;;;;;17.56;49.15;102276.19;5029156;27;97742;-73
2023/05/20 04:42:57;;;;;;;9.57;3.85;;;;;;;17.32;49.71;102275.38;5022470;27;97456;-73
2023/05/20 04:45:23;;;;;;;9.55;3.65;;;;;;;17.53;49.24;102274.50;5032129;27;96897;-73
2023/05/20 04:47:52;;;;;;;8.68;3.33;;;;;;;17.64;48.85;102283.00;5029425;27;99047;-73
2023/05/20 04:50:20;;;;;;;6.38;3.63;;;;;;;17.76;48.75;102279.81;5030849;27;98694;-72
2023/05/20 04:52:47;;;;;;;6.90;3.20;;;;;;;17.65;48.78;102283.88;5017128;27;97090;-72
2023/05/20 04:55:14;;;;;;;9.75;3.67;;;;;;;17.49;49.32;102278.25;5019442;27;96897;-73
2023/05/20 04:57:42;;;;;;;8.65;3.25;;;;;;;17.73;48.79;102276.38;5024574;27;98915;-73
2023/05/20 05:00:09;;;;;;;7.03;3.47;;;;;;;17.50;49.11;102263.94;5028904;27;99837;-72
2023/05/20 05:02:36;;;;;;;8.80;3.15;;;;;;;17.74;48.77;102273.66;5008220;27;99073;-72
2023/05/20 05:05:03;;;;;;;9.02;3.65;;;;;;;17.66;48.99;102270.44;5019198;27;97657;-72
2023/05/20 05:07:31;;;;;;;4.82;3.63;;;;;;;17.80;48.58;102275.22;5029217;27;98885;-72
2023/05/20 05:09:57;;;;;;;4.93;3.22;;;;;;;17.77;48.77;102273.56;5026794;27;98777;-72
2023/05/20 05:12:23;;;;;;;9.00;3.80;;;;;;;17.73;48.75;102271.91;5022635;27;99094;-72
2023/05/20 05:14:50;;;;;;;7.03;3.47;;;;;;;17.62;49.29;102267.94;5024681;27;98188;-72
2023/05/20 05:17:16;;;;;;;5.80;3.63;;;;;;;17.54;49.55;102266.44;5032375;27;98927;-72
2023/05/20 05:19:43;;;;;;;5.75;3.50;;;;;;;17.39;50.12;102258.16;5030912;27;99211;-72
2023/05/20 05:22:09;;;;;;;5.10;3.47;;;;;;;17.53;49.72;102262.00;5030183;27;96839;-72
2023/05/20 05:24:38;;;;;;;7.18;3.50;;;;;;;17.54;49.92;102262.88;5033827;27;96836;-73
2023/05/20 05:27:05;;;;;;;10.63;4.40;;;;;;;17.78;49.23;102264.59;5031605;27;99000;-73
2023/05/20 05:29:31;;;;;;;7.05;3.75;;;;;;;17.77;49.17;102267.34;5022882;27;102086;-72
2023/05/20 05:31:58;;;;;;;7.35;3.60;;;;;;;17.68;49.63;102260.56;5026233;27;96814;-72
2023/05/20 05:34:24;;;;;;;13.45;4.40;;;;;;;17.76;49.64;102271.81;5026145;27;98359;-73
2023/05/20 05:36:51;;;;;;;11.40;4.82;;;;;;;17.85;49.55;102266.06;5039110;27;98970;-74
2023/05/20 05:39:17;;;;;;;13.43;4.20;;;;;;;18.05;49.14;102267.88;5038926;27;98811;-73
2023/05/20 05:41:45;;;;;;;8.80;4.63;;;;;;;18.05;49.24;102257.19;5038264;27;96773;-73
2023/05/20 05:44:11;;;;;;;8.65;4.22;;;;;;;18.04;49.17;102254.59;5029110;27;97020;-73
2023/05/20 05:46:38;;;;;;;17.25;4.43;;;;;;;18.16;48.95;102246.91;5033343;27;99134;-73
2023/05/20 05:49:04;;;;;;;10.82;4.07;;;;;;;18.06;49.33;102261.63;5018032;27;102244;-73
2023/05/20 05:51:30;;;;;;;5.60;3.72;;;;;;;18.18;49.04;102253.06;5035993;27;97797;-73
2023/05/20 05:53:57;;;;;;;10.43;4.28;;;;;;;18.22;49.06;102249.31;5035618;27;96933;-73
2023/05/20 05:56:23;;;;;;;10.65;4.40;;;;;;;18.39;48.69;102251.25;5024914;27;98902;-72
2023/05/20 05:58:52;;;;;;;8.52;4.63;;;;;;;18.35;48.89;102241.63;5020322;27;97157;-74
2023/05/20 06:01:19;;;;;;;8.13;4.15;;;;;;;18.49;48.65;102244.56;5027813;27;97688;-73
2023/05/20 06:03:45;;;;;;;10.05;4.10;;;;;;;18.25;49.29;102245.63;5020103;27;96964;-72
2023/05/20 06:06:12;;;;;;;7.05;4.00;;;;;;;18.18;49.52;102239.69;5024885;27;98888;-73
2023/05/20 06:08:38;;;;;;;10.32;4.55;;;;;;;18.21;49.48;102244.91;5030766;27;98849;-74
2023/05/20 06:11:04;;;;;;;8.82;4.18;;;;;;;18.25;49.58;102237.59;5020082;27;96706;-74
2023/05/20 06:13:35;;;;;;;14.60;4.05;;;;;;;18.50;48.88;102240.09;5023733;27;97027;-74
2023/05/20 06:16:03;;;;;;;9.55;4.15;;;;;;;18.55;48.88;102233.63;5022182;27;99075;-73
2023/05/20 06:18:29;;;;;;;8.65;4.50;;;;;;;18.55;48.98;102235.38;5024813;27;97570;-73
2023/05/20 06:20:57;;;;;;;9.85;4.20;;;;;;;18.40;49.40;102239.59;5025823;27;96808;-74
2023/05/20 06:23:23;;;;;;;8.63;4.45;;;;;;;18.49;49.01;102236.53;5018820;27;96912;-73
2023/05/20 06:25:50;;;;;;;9.75;4.63;;;;;;;18.52;49.21;102241.72;5018028;27;98189;-73
2023/05/20 06:28:17;;;;;;;9.75;4.90;;;;;;;18.44;49.43;102240.34;5028916;27;99119;-72
2023/05/20 06:30:44;;;;;;;7.53;4.35;;;;;;;18.50;49.29;102242.75;5024434;27;96869;-73
2023/05/20 06:33:12;;;;;;;8.18;4.50;;;;;;;18.52;49.33;102241.72;5017245;27;98517;-73
2023/05/20 06:35:38;;;;;;;12.10;4.53;;;;;;;18.32;49.81;102244.44;5020538;27;98991;-75
2023/05/20 06:38:05;;;;;;;14.38;5.18;;;;;;;18.47;49.45;102251.78;5014805;27;101575;-74
2023/05/20 06:40:31;;;;;;;10.85;5.20;;;;;;;18.24;49.82;102247.47;5018196;27;97207;-74
2023/05/20 06:42:58;;;;;;;8.77;4.30;;;;;;;18.50;49.49;102246.31;5021994;27;96814;-74
2023/05/20 06:45:27;;;;;;;8.90;5.10;;;;;;;18.71;49.26;102250.69;5014633;27;97634;-74
2023/05/20 06:47:54;;;;;;;12.88;4.68;;;;;;;18.76;48.96;102250.50;5012681;27;99920;-74
2023/05/20 06:50:22;;;;;;;8.68;4.70;;;;;;;18.77;48.92;102246.91;5026492;27;98735;-73
2023/05/20 06:52:51;;;;;;;7.00;4.15;;;;;;;18.75;49.09;102251.44;5023169;27;96947;-73
2023/05/20 06:55:18;;;;;;;13.40;4.47;;;;;;;18.78;48.93;102247.75;5017331;27;97696;-73
2023/05/20 06:57:45;;;;;;;7.13;4.63;;;;;;;18.70;49.17;102243.63;5009752;27;99253;-74
2023/05/20 07:00:13;;;;;;;10.77;4.40;;;;;;;18.46;49.86;102244.69;5020124;27;96883;-74
2023/05/20 07:02:40;;;;;;;8.80;5.22;;;;;;;18.54;49.92;102247.91;5016076;27;96975;-73
2023/05/20 07:05:07;;;;;;;7.40;4.40;;;;;;;18.70;49.50;102248.13;5019988;27;99100;-74
2023/05/20 07:07:35;;;;;;;9.40;4.90;;;;;;;18.95;49.11;102247.84;5015143;27;99162;-74
2023/05/20 07:10:04;;;;;;;10.20;4.43;;;;;;;19.07;48.69;102247.25;5013886;27;96865;-73
2023/05/20 07:12:31;;;;;;;5.10;3.83;;;;;;;19.19;48.35;102241.31;5020775;27;96917;-74
2023/05/20 07:14:57;;;;;;;10.57;4.47;;;;;;;19.43;47.84;102239.25;5010841;27;100963;-69
2023/05/20 07:17:24;;;;;;;8.48;4.25;;;;;;;19.43;47.78;102229.41;5018987;27;97388;-72
2023/05/20 07:19:51;;;;;;;9.02;4.57;;;;;;;19.56;47.57;102231.53;5011206;27;97287;-70
2023/05/20 07:22:18;;;;;;;12.68;5.00;;;;;;;19.62;47.30;102244.63;5022874;27;96996;-70
2023/05/20 07:25:00;;;;;;;10.82;4.97;;;;;;;19.44;47.90;102241.00;5026205;27;98247;-74
2023/05/20 07:27:26;;;;;;;7.93;4.63;;;;;;;19.52;47.40;102237.97;5023395;27;100641;-70
2023/05/20 07:29:53;;;;;;;9.20;4.80;;;;;;;19.62;47.29;102241.97;5008152;27;98731;-70
2023/05/20 07:32:23;;;;;;;9.95;5.07;;;;;;;19.63;47.40;102232.94;5026480;27;98203;-71
2023/05/20 07:34:49;;;;;;;10.93;4.95;;;;;;;19.52;47.58;102228.13;5023162;27;101486;-70
2023/05/20 07:37:16;;;;;;;10.75;4.75;;;;;;;19.58;47.47;102225.13;5013901;27;99086;-71
2023/05/20 07:39:43;;;;;;;11.00;4.35;;;;;;;19.69;47.00;102216.56;5012807;27;97723;-70
2023/05/20 07:42:10;;;;;;;10.73;4.53;;;;;;;20.03;46.43;102224.59;5008018;27;98500;-71
2023/05/20 07:44:37;;;;;;;12.05;4.90;;;;;;;19.96;46.49;102220.50;5006489;27;100392;-71
2023/05/20 07:47:03;;;;;;;10.98;4.32;;;;;;;20.09;46.05;102221.59;5018607;27;99351;-71
2023/05/20 07:49:30;;;;;;;10.93;5.00;;;;;;;20.34;45.61;102221.25;5011685;27;98941;-71
2023/05/20 07:51:57;;;;;;;7.30;4.75;;;;;;;20.44;45.07;102221.59;5011799;27;97119;-71
2023/05/20 07:54:24;;;;;;;6.95;4.18;;;;;;;20.58;44.54;102208.31;5010122;27;98508;-73
2023/05/20 07:56:51;;;;;;;8.35;4.68;;;;;;;20.85;44.41;102212.19;5014041;27;99129;-72
2023/05/20 07:59:24;;;;;;;12.43;5.85;;;;;;;20.87;44.01;102215.63;5012424;27;97585;-71
2023/05/20 08:01:50;;;;;;;6.68;4.50;;;;;;;20.84;44.24;102209.56;5014041;27;96947;-71
2023/05/20 08:04:17;;;;;;;11.02;5.70;;;;;;;20.93;43.95;102206.38;5015447;27;99345;-70
2023/05/20 08:06:44;;;;;;;6.35;4.18;;;;;;;20.95;43.58;102207.16;5014817;27;99055;-71
2023/05/20 08:09:11;;;;;;;7.97;4.30;;;;;;;21.20;43.35;102204.84;5015695;27;97335;-71
2023/05/20 08:11:37;;;;;;;8.63;5.28;;;;;;;21.03;43.41;102205.78;5012875;27;97297;-71
2023/05/20 08:14:03;;;;;;;11.75;4.32;;;;;;;21.27;42.81;102200.84;5013334;27;99063;-71
2023/05/20 08:16:31;;;;;;;6.50;4.20;;;;;;;21.39;42.62;102207.38;5016224;27;100432;-71
2023/05/20 08:18:57;;;;;;;6.95;4.30;;;;;;;21.27;42.94;102208.91;5010051;27;98759;-71
2023/05/20 08:21:24;;;;;;;8.10;4.22;;;;;;;21.48;42.73;102204.13;5014307;27;96901;-71
2023/05/20 08:23:50;;;;;;;7.10;4.03;;;;;;;21.60;42.25;102206.09;5010745;27;98236;-71
2023/05/20 08:26:16;;;;;;;6.18;4.10;;;;;;;21.55;41.78;102197.44;5015181;27;99115;-71
2023/05/20 08:28:43;;;;;;;8.73;4.47;;;;;;;21.92;41.53;102187.19;5005208;27;98941;-71
2023/05/20 08:31:10;;;;;;;6.50;4.15;;;;;;;21.58;42.08;102181.13;5018394;27;98616;-72
2023/05/20 08:33:40;;;;;;;6.90;4.60;;;;;;;21.45;42.19;102188.19;5026602;27;97883;-72
2023/05/20 08:36:22;;;;;;;4.35;3.88;;;;;;;21.44;42.00;102181.06;5016044;27;98951;-71
2023/05/20 08:38:49;;;;;;;13.43;5.10;;;;;;;21.80;41.78;102178.88;5017528;27;96805;-74
2023/05/20 08:41:15;;;;;;;5.93;4.07;;;;;;;21.94;41.55;102171.78;5016130;27;97103;-74
2023/05/20 08:43:42;;;;;;;7.25;4.13;;;;;;;21.98;41.06;102173.41;5018512;27;100545;-73
2023/05/20 08:46:10;;;;;;;6.63;4.72;;;;;;;22.12;40.63;102171.56;5015453;27;98982;-74
2023/05/20 08:48:38;;;;;;;9.30;4.32;;;;;;;22.15;40.86;102168.69;5019688;27;97239;-74
2023/05/20 08:51:08;;;;;;;7.10;4.30;;;;;;;22.28;40.56;102182.28;5012669;27;97264;-74
2023/05/20 08:53:35;;;;;;;7.82;4.60;;;;;;;22.31;40.35;102179.41;5012488;27;97726;-74
2023/05/20 08:56:02;;;;;;;5.88;4.13;;;;;;;22.46;40.28;102174.88;5009038;27;100537;-73
2023/05/20 08:59:03;;;;;;;7.90;4.30;;;;;;;22.46;40.02;102175.72;5012725;27;98345;-74
2023/05/20 09:01:30;;;;;;;10.10;4.70;;;;;;;22.67;39.44;102177.06;5003923;27;98883;-74
2023/05/20 09:03:58;;;;;;;5.32;4.10;;;;;;;22.58;39.58;102180.34;5009482;27;99698;-73
2023/05/20 09:06:25;;;;;;;6.30;4.53;;;;;;;22.37;40.08;102179.03;5008626;27;101374;-74
2023/05/20 09:08:51;;;;;;;10.98;4.60;;;;;;;22.02;40.66;102174.94;5017537;27;97306;-75
2023/05/20 09:11:17;;;;;;;5.35;4.55;;;;;;;21.92;41.01;102180.00;5015580;27;97738;-76
2023/05/20 09:13:44;;;;;;;7.72;4.60;;;;;;;21.66;42.02;102178.81;5013355;27;99161;-74
2023/05/20 09:16:10;;;;;;;7.38;4.50;;;;;;;21.69;41.88;102181.34;5019557;27;97896;-73
2023/05/20 09:18:38;;;;;;;5.95;4.50;;;;;;;21.58;42.48;102182.94;5007868;27;98673;-78
2023/05/20 09:21:06;;;;;;;7.30;4.72;;;;;;;21.49;42.28;102192.41;5011623;27;98734;-79
2023/05/20 09:23:33;;;;;;;11.05;5.35;;;;;;;21.55;42.50;102173.22;5015371;27;98335;-79
2023/05/20 09:26:01;;;;;;;6.30;4.50;;;;;;;21.62;42.54;102176.41;5017063;27;98937;-78
2023/05/20 09:28:27;;;;;;;8.70;4.97;;;;;;;21.75;42.09;102166.66;5015570;27;97067;-77
2023/05/20 09:30:57;;;;;;;7.85;4.40;;;;;;;21.92;41.65;102169.22;5016531;27;96922;-78
2023/05/20 09:33:28;;;;;;;9.32;4.30;;;;;;;21.80;41.69;102160.03;5020119;27;99036;-79
2023/05/20 09:36:02;;;;;;;6.65;4.72;;;;;;;22.16;41.37;102172.25;5015980;27;98909;-81
2023/05/20 09:38:36;;;;;;;8.95;4.70;;;;;;;22.24;41.08;102172.66;5020409;27;98734;-79
2023/05/20 09:41:06;;;;;;;9.95;5.03;;;;;;;22.18;41.16;102173.03;5018394;27;97463;-79
2023/05/20 09:43:33;;;;;;;9.65;5.20;;;;;;;22.33;41.06;102163.13;5015322;27;102171;-79
2023/05/20 09:46:00;;;;;;;7.47;4.97;;;;;;;22.49;40.56;102164.78;5013365;27;99522;-78
2023/05/20 09:48:27;;;;;;;6.78;5.15;;;;;;;22.44;40.70;102169.59;5023478;27;97668;-78
2023/05/20 09:50:56;;;;;;;8.48;5.97;;;;;;;22.32;40.92;102167.63;5019853;27;96863;-78
2023/05/20 09:53:26;;;;;;;9.52;5.68;;;;;;;22.01;41.44;102165.97;5013550;27;99970;-78
2023/05/20 09:55:54;;;;;;;7.90;5.63;;;;;;;21.57;42.48;102163.25;5015249;27;98840;-79
2023/05/20 09:58:22;;;;;;;12.93;6.57;;;;;;;21.73;42.10;102164.06;5017472;27;97214;-79
2023/05/20 10:00:48;;;;;;;9.43;5.97;;;;;;;21.78;41.91;102164.66;5021537;27;97081;-77
2023/05/20 10:03:15;;;;;;;10.77;6.55;;;;;;;21.99;41.81;102159.00;5026742;27;96957;-78
2023/05/20 10:05:47;;;;;;;11.13;6.78;;;;;;;22.21;41.22;102168.31;5024380;27;98826;-80
2023/05/20 10:08:27;;;;;;;9.85;7.05;;;;;;;22.18;41.04;102165.84;5024532;27;97149;-79
2023/05/20 10:11:03;;;;;;;9.95;6.50;;;;;;;22.29;40.92;102159.78;5021790;27;98083;-77
2023/05/20 10:13:54;;;;;;;9.63;6.45;;;;;;;22.02;41.48;102156.97;5021787;27;99353;-77
2023/05/20 10:16:30;;;;;;;8.30;6.07;;;;;;;22.02;41.44;102153.41;5015446;27;98789;-76
2023/05/20 10:19:00;;;;;;;;;;;;;;;21.87;42.13;102158.72;5023452;27;97106;-77
2023/05/20 10:21:27;;;;;;;9.13;6.00;;;;;;;21.80;42.26;102160.03;5017100;27;97155;-80
2023/05/20 10:23:53;;;;;;;10.00;6.78;;;;;;;21.95;42.16;102154.69;5023432;27;99517;-77
2023/05/20 10:26:21;;;;;;;10.82;6.78;;;;;;;22.03;42.09;102157.81;5024523;27;99130;-77
2023/05/20 10:28:48;;;;;;;8.93;6.15;;;;;;;22.36;41.40;102149.47;5023578;27;97640;-79
2023/05/20 10:31:16;;;;;;;10.63;6.90;;;;;;;22.50;40.89;102152.19;5019160;27;98354;-77
2023/05/20 10:33:44;;;;;;;14.88;6.57;;;;;;;22.14;41.70;102145.44;5021226;27;98406;-77
2023/05/20 10:36:21;;;;;;;11.10;6.55;;;;;;;22.01;42.02;102140.91;5023218;27;98794;-76
2023/05/20 10:38:52;;;;;;;10.57;6.72;;;;;;;22.02;42.17;102142.63;5019587;27;96967;-77
2023/05/20 10:41:23;;;;;;;12.00;7.20;;;;;;;22.40;41.54;102142.94;5020706;27;96794;-76
2023/05/20 10:44:00;;;;;;;9.65;6.65;;;;;;;22.84;40.55;102137.44;5026491;27;99098;-76
2023/05/20 10:46:27;;;;;;;10.55;6.63;;;;;;;22.84;40.53;102134.75;5016737;27;99073;-77
2023/05/20 10:48:53;;;;;;;10.55;6.95;;;;;;;23.22;39.73;102126.81;5025720;27;96918;-76
2023/05/20 10:51:20;;;;;;;13.73;7.18;;;;;;;23.63;39.06;102129.47;5014683;27;97356;-76
2023/05/20 10:53:47;;;;;;;10.05;6.05;;;;;;;23.78;38.49;102126.56;5017784;27;99328;-78
2023/05/20 10:56:17;;;;;;;14.20;6.50;;;;;;;23.67;38.37;102122.88;5021318;27;99167;-76
2023/05/20 10:58:45;;;;;;;10.95;6.65;;;;;;;23.72;38.61;102123.41;5018630;27;97006;-74
2023/05/20 11:01:12;;;;;;;10.20;6.80;;;;;;;23.61;39.04;102124.16;5018486;27;97485;-72
2023/05/20 11:03:40;;;;;;;11.05;6.40;;;;;;;23.99;38.31;102108.00;5020386;27;99445;-72
2023/05/20 11:06:14;;;;;;;7.97;6.18;;;;;;;23.98;38.02;102111.66;5017177;27;98864;-74
2023/05/20 11:08:40;;;;;;;13.27;6.60;;;;;;;24.24;37.61;102107.16;5015118;27;97590;-72
2023/05/20 11:11:07;;;;;;;10.50;6.53;;;;;;;24.09;37.84;102102.84;5020688;27;97340;-72
2023/05/20 11:13:34;;;;;;;12.73;6.82;;;;;;;23.96;37.83;102099.28;5027374;27;99576;-78
2023/05/20 11:16:03;;;;;;;12.98;6.30;;;;;;;24.00;37.76;102090.84;5029116;27;99850;-76
2023/05/20 11:18:30;;;;;;;11.18;7.20;;;;;;;24.22;37.03;102095.59;5019336;27;97421;-78
2023/05/20 11:20:57;;;;;;;8.85;6.65;;;;;;;24.39;36.25;102094.38;5024803;27;97041;-77
2023/05/20 11:23:24;;;;;;;9.85;6.78;;;;;;;24.62;36.66;102093.56;5022931;27;97500;-78